sensor_id;sensor_type;location;lat;lon;timestamp;temperature;humidity
61151;DHT22;47029;50.994;2.876;2022-07-15T00:01:54;17.20;98.00
61151;DHT22;47029;50.994;2.876;2022-07-15T00:04:20;17.20;98.10
61151;DHT22;47029;50.994;2.876;2022-07-15T00:06:46;17.10;98.00
61151;DHT22;47029;50.994;2.876;2022-07-15T00:09:12;17.10;98.10
61151;DHT22;47029;50.994;2.876;2022-07-15T00:11:37;17.10;98.20
61151;DHT22;47029;50.994;2.876;2022-07-15T00:14:03;17.00;98.30
61151;DHT22;47029;50.994;2.876;2022-07-15T00:16:29;17.00;98.20
61151;DHT22;47029;50.994;2.876;2022-07-15T00:18:55;17.00;98.30
61151;DHT22;47029;50.994;2.876;2022-07-15T00:21:20;16.90;98.50
61151;DHT22;47029;50.994;2.876;2022-07-15T00:23:46;16.90;98.80
61151;DHT22;47029;50.994;2.876;2022-07-15T00:26:12;16.90;98.80
61151;DHT22;47029;50.994;2.876;2022-07-15T00:28:38;16.80;98.70
61151;DHT22;47029;50.994;2.876;2022-07-15T00:31:04;16.80;98.50
61151;DHT22;47029;50.994;2.876;2022-07-15T00:33:30;16.70;98.60
61151;DHT22;47029;50.994;2.876;2022-07-15T00:35:56;16.70;98.90
61151;DHT22;47029;50.994;2.876;2022-07-15T00:38:21;16.60;99.30
61151;DHT22;47029;50.994;2.876;2022-07-15T00:40:49;16.60;99.50
61151;DHT22;47029;50.994;2.876;2022-07-15T00:43:16;16.60;99.50
61151;DHT22;47029;50.994;2.876;2022-07-15T00:45:42;16.50;99.60
61151;DHT22;47029;50.994;2.876;2022-07-15T00:48:09;16.60;99.70
61151;DHT22;47029;50.994;2.876;2022-07-15T00:50:35;16.60;99.80
61151;DHT22;47029;50.994;2.876;2022-07-15T00:53:06;16.50;99.70
61151;DHT22;47029;50.994;2.876;2022-07-15T00:55:40;16.50;99.60
61151;DHT22;47029;50.994;2.876;2022-07-15T00:58:08;16.50;99.60
61151;DHT22;47029;50.994;2.876;2022-07-15T01:00:36;16.30;99.50
61151;DHT22;47029;50.994;2.876;2022-07-15T01:03:02;16.10;99.70
61151;DHT22;47029;50.994;2.876;2022-07-15T01:05:28;16.20;99.70
61151;DHT22;47029;50.994;2.876;2022-07-15T01:07:55;16.20;99.80
61151;DHT22;47029;50.994;2.876;2022-07-15T01:10:22;16.20;99.90
61151;DHT22;47029;50.994;2.876;2022-07-15T01:12:50;16.20;99.90
61151;DHT22;47029;50.994;2.876;2022-07-15T01:15:16;16.20;99.90
61151;DHT22;47029;50.994;2.876;2022-07-15T01:17:44;16.20;99.90
61151;DHT22;47029;50.994;2.876;2022-07-15T01:20:10;16.20;99.90
61151;DHT22;47029;50.994;2.876;2022-07-15T01:22:36;16.10;99.90
61151;DHT22;47029;50.994;2.876;2022-07-15T01:25:02;16.10;99.90
61151;DHT22;47029;50.994;2.876;2022-07-15T01:27:28;16.00;99.90
61151;DHT22;47029;50.994;2.876;2022-07-15T01:29:54;16.10;99.90
61151;DHT22;47029;50.994;2.876;2022-07-15T01:32:20;16.00;99.90
61151;DHT22;47029;50.994;2.876;2022-07-15T01:34:45;16.10;99.90
61151;DHT22;47029;50.994;2.876;2022-07-15T01:37:14;15.90;99.90
61151;DHT22;47029;50.994;2.876;2022-07-15T01:39:41;15.90;99.90
61151;DHT22;47029;50.994;2.876;2022-07-15T01:42:06;15.90;99.90
61151;DHT22;47029;50.994;2.876;2022-07-15T01:44:32;15.90;99.90
61151;DHT22;47029;50.994;2.876;2022-07-15T01:46:58;15.80;99.90
61151;DHT22;47029;50.994;2.876;2022-07-15T01:49:24;15.80;99.90
61151;DHT22;47029;50.994;2.876;2022-07-15T01:51:56;15.80;99.90
61151;DHT22;47029;50.994;2.876;2022-07-15T01:54:23;15.80;99.90
61151;DHT22;47029;50.994;2.876;2022-07-15T01:56:50;15.60;99.70
61151;DHT22;47029;50.994;2.876;2022-07-15T01:59:16;15.30;99.70
61151;DHT22;47029;50.994;2.876;2022-07-15T02:01:43;15.10;99.90
61151;DHT22;47029;50.994;2.876;2022-07-15T02:04:10;15.00;99.80
61151;DHT22;47029;50.994;2.876;2022-07-15T02:06:36;15.00;99.90
61151;DHT22;47029;50.994;2.876;2022-07-15T02:09:02;15.00;99.90
61151;DHT22;47029;50.994;2.876;2022-07-15T02:11:28;15.00;99.90
61151;DHT22;47029;50.994;2.876;2022-07-15T02:13:54;15.00;99.90
61151;DHT22;47029;50.994;2.876;2022-07-15T02:16:24;15.10;99.90
61151;DHT22;47029;50.994;2.876;2022-07-15T02:18:50;15.10;99.90
61151;DHT22;47029;50.994;2.876;2022-07-15T02:21:16;15.10;99.90
61151;DHT22;47029;50.994;2.876;2022-07-15T02:23:41;15.20;99.90
61151;DHT22;47029;50.994;2.876;2022-07-15T02:26:07;15.10;99.90
61151;DHT22;47029;50.994;2.876;2022-07-15T02:28:33;15.10;99.90
61151;DHT22;47029;50.994;2.876;2022-07-15T02:30:59;15.00;99.90
61151;DHT22;47029;50.994;2.876;2022-07-15T02:33:25;14.80;99.90
61151;DHT22;47029;50.994;2.876;2022-07-15T02:35:51;14.80;99.90
61151;DHT22;47029;50.994;2.876;2022-07-15T02:38:17;14.70;99.90
61151;DHT22;47029;50.994;2.876;2022-07-15T02:40:43;14.70;99.90
61151;DHT22;47029;50.994;2.876;2022-07-15T02:43:09;14.70;99.60
61151;DHT22;47029;50.994;2.876;2022-07-15T02:45:36;14.70;99.80
61151;DHT22;47029;50.994;2.876;2022-07-15T02:48:03;14.70;99.90
61151;DHT22;47029;50.994;2.876;2022-07-15T02:50:29;14.60;99.90
61151;DHT22;47029;50.994;2.876;2022-07-15T02:52:55;14.50;99.90
61151;DHT22;47029;50.994;2.876;2022-07-15T02:55:21;14.40;99.90
61151;DHT22;47029;50.994;2.876;2022-07-15T02:57:47;14.20;99.90
61151;DHT22;47029;50.994;2.876;2022-07-15T03:00:15;14.20;99.90
61151;DHT22;47029;50.994;2.876;2022-07-15T03:02:43;14.00;99.90
61151;DHT22;47029;50.994;2.876;2022-07-15T03:05:09;14.00;99.90
61151;DHT22;47029;50.994;2.876;2022-07-15T03:07:37;13.90;99.90
61151;DHT22;47029;50.994;2.876;2022-07-15T03:10:04;14.00;99.90
61151;DHT22;47029;50.994;2.876;2022-07-15T03:12:30;14.00;99.90
61151;DHT22;47029;50.994;2.876;2022-07-15T03:14:57;13.90;99.90
61151;DHT22;47029;50.994;2.876;2022-07-15T03:17:22;13.80;99.90
61151;DHT22;47029;50.994;2.876;2022-07-15T03:19:48;14.00;99.90
61151;DHT22;47029;50.994;2.876;2022-07-15T03:22:14;13.70;99.90
61151;DHT22;47029;50.994;2.876;2022-07-15T03:24:40;13.50;99.90
61151;DHT22;47029;50.994;2.876;2022-07-15T03:27:06;13.30;99.90
61151;DHT22;47029;50.994;2.876;2022-07-15T03:29:31;13.30;99.90
61151;DHT22;47029;50.994;2.876;2022-07-15T03:31:57;13.10;99.90
61151;DHT22;47029;50.994;2.876;2022-07-15T03:34:23;13.20;99.90
61151;DHT22;47029;50.994;2.876;2022-07-15T03:36:53;13.20;99.90
61151;DHT22;47029;50.994;2.876;2022-07-15T03:39:19;13.30;99.90
61151;DHT22;47029;50.994;2.876;2022-07-15T03:41:45;13.30;99.90
61151;DHT22;47029;50.994;2.876;2022-07-15T03:44:12;13.40;99.90
61151;DHT22;47029;50.994;2.876;2022-07-15T03:46:39;13.50;99.90
61151;DHT22;47029;50.994;2.876;2022-07-15T03:49:05;13.50;99.90
61151;DHT22;47029;50.994;2.876;2022-07-15T03:51:31;13.50;99.90
61151;DHT22;47029;50.994;2.876;2022-07-15T03:54:01;13.60;99.90
61151;DHT22;47029;50.994;2.876;2022-07-15T03:56:27;13.60;99.90
61151;DHT22;47029;50.994;2.876;2022-07-15T03:58:53;13.50;99.90
61151;DHT22;47029;50.994;2.876;2022-07-15T04:01:19;13.60;99.90
61151;DHT22;47029;50.994;2.876;2022-07-15T04:03:46;13.60;99.90
61151;DHT22;47029;50.994;2.876;2022-07-15T04:06:16;13.40;99.90
61151;DHT22;47029;50.994;2.876;2022-07-15T04:08:43;13.60;99.90
61151;DHT22;47029;50.994;2.876;2022-07-15T04:11:09;13.70;99.90
61151;DHT22;47029;50.994;2.876;2022-07-15T04:13:36;13.50;99.90
61151;DHT22;47029;50.994;2.876;2022-07-15T04:16:01;13.40;99.90
61151;DHT22;47029;50.994;2.876;2022-07-15T04:18:27;13.40;99.90
61151;DHT22;47029;50.994;2.876;2022-07-15T04:20:53;13.40;99.90
61151;DHT22;47029;50.994;2.876;2022-07-15T04:23:19;13.50;99.90
61151;DHT22;47029;50.994;2.876;2022-07-15T04:25:44;13.60;99.90
61151;DHT22;47029;50.994;2.876;2022-07-15T04:28:10;13.50;99.90
61151;DHT22;47029;50.994;2.876;2022-07-15T04:30:36;13.50;99.90
61151;DHT22;47029;50.994;2.876;2022-07-15T04:33:02;13.40;99.90
61151;DHT22;47029;50.994;2.876;2022-07-15T04:35:28;13.50;99.90
61151;DHT22;47029;50.994;2.876;2022-07-15T04:37:53;13.50;99.90
61151;DHT22;47029;50.994;2.876;2022-07-15T04:40:19;13.40;99.90
61151;DHT22;47029;50.994;2.876;2022-07-15T04:42:45;13.60;99.90
61151;DHT22;47029;50.994;2.876;2022-07-15T04:45:11;13.70;99.90
61151;DHT22;47029;50.994;2.876;2022-07-15T04:47:36;14.00;99.90
61151;DHT22;47029;50.994;2.876;2022-07-15T04:50:03;14.20;99.90
61151;DHT22;47029;50.994;2.876;2022-07-15T04:52:47;14.40;99.90
61151;DHT22;47029;50.994;2.876;2022-07-15T04:55:14;14.70;99.90
61151;DHT22;47029;50.994;2.876;2022-07-15T04:57:40;14.80;99.90
61151;DHT22;47029;50.994;2.876;2022-07-15T05:00:07;15.00;99.90
61151;DHT22;47029;50.994;2.876;2022-07-15T05:02:34;15.20;99.90
61151;DHT22;47029;50.994;2.876;2022-07-15T05:04:59;15.30;99.90
61151;DHT22;47029;50.994;2.876;2022-07-15T05:07:25;15.50;99.90
61151;DHT22;47029;50.994;2.876;2022-07-15T05:09:51;15.70;99.90
61151;DHT22;47029;50.994;2.876;2022-07-15T05:12:17;15.80;99.90
61151;DHT22;47029;50.994;2.876;2022-07-15T05:14:43;16.10;99.90
61151;DHT22;47029;50.994;2.876;2022-07-15T05:17:09;16.30;99.90
61151;DHT22;47029;50.994;2.876;2022-07-15T05:19:35;16.60;99.90
61151;DHT22;47029;50.994;2.876;2022-07-15T05:22:01;16.70;99.90
61151;DHT22;47029;50.994;2.876;2022-07-15T05:24:27;17.00;99.90
61151;DHT22;47029;50.994;2.876;2022-07-15T05:26:53;17.30;99.90
61151;DHT22;47029;50.994;2.876;2022-07-15T05:29:19;17.40;99.90
61151;DHT22;47029;50.994;2.876;2022-07-15T05:31:48;17.60;99.90
61151;DHT22;47029;50.994;2.876;2022-07-15T05:34:14;17.70;99.90
61151;DHT22;47029;50.994;2.876;2022-07-15T05:36:40;17.90;99.90
61151;DHT22;47029;50.994;2.876;2022-07-15T05:39:06;18.10;99.90
61151;DHT22;47029;50.994;2.876;2022-07-15T05:41:32;18.20;99.90
61151;DHT22;47029;50.994;2.876;2022-07-15T05:43:58;18.20;99.90
61151;DHT22;47029;50.994;2.876;2022-07-15T05:46:24;18.40;99.90
61151;DHT22;47029;50.994;2.876;2022-07-15T05:48:50;18.70;99.90
61151;DHT22;47029;50.994;2.876;2022-07-15T05:51:16;18.70;99.00
61151;DHT22;47029;50.994;2.876;2022-07-15T05:53:42;18.70;98.00
61151;DHT22;47029;50.994;2.876;2022-07-15T05:56:08;18.90;98.90
61151;DHT22;47029;50.994;2.876;2022-07-15T05:58:34;19.00;98.80
61151;DHT22;47029;50.994;2.876;2022-07-15T06:01:00;19.30;98.60
61151;DHT22;47029;50.994;2.876;2022-07-15T06:03:26;19.50;98.00
61151;DHT22;47029;50.994;2.876;2022-07-15T06:05:51;19.50;97.20
61151;DHT22;47029;50.994;2.876;2022-07-15T06:08:17;19.60;97.60
61151;DHT22;47029;50.994;2.876;2022-07-15T06:10:43;19.70;97.30
61151;DHT22;47029;50.994;2.876;2022-07-15T06:13:09;19.80;97.00
61151;DHT22;47029;50.994;2.876;2022-07-15T06:15:35;20.20;96.70
61151;DHT22;47029;50.994;2.876;2022-07-15T06:18:02;20.10;95.80
61151;DHT22;47029;50.994;2.876;2022-07-15T06:20:28;20.40;95.40
61151;DHT22;47029;50.994;2.876;2022-07-15T06:22:54;20.30;94.20
61151;DHT22;47029;50.994;2.876;2022-07-15T06:25:20;20.10;94.00
61151;DHT22;47029;50.994;2.876;2022-07-15T06:27:46;20.20;94.60
61151;DHT22;47029;50.994;2.876;2022-07-15T06:30:12;20.10;94.80
61151;DHT22;47029;50.994;2.876;2022-07-15T06:32:38;20.60;94.90
61151;DHT22;47029;50.994;2.876;2022-07-15T06:35:05;20.90;94.50
61151;DHT22;47029;50.994;2.876;2022-07-15T06:37:31;20.70;93.90
61151;DHT22;47029;50.994;2.876;2022-07-15T06:39:57;20.60;93.80
61151;DHT22;47029;50.994;2.876;2022-07-15T06:42:23;20.80;94.80
61151;DHT22;47029;50.994;2.876;2022-07-15T06:44:49;21.20;93.60
61151;DHT22;47029;50.994;2.876;2022-07-15T06:47:15;21.30;92.90
61151;DHT22;47029;50.994;2.876;2022-07-15T06:49:41;21.40;91.70
61151;DHT22;47029;50.994;2.876;2022-07-15T06:52:07;21.10;92.20
61151;DHT22;47029;50.994;2.876;2022-07-15T06:54:33;21.60;91.10
61151;DHT22;47029;50.994;2.876;2022-07-15T06:56:59;21.70;90.80
61151;DHT22;47029;50.994;2.876;2022-07-15T06:59:27;21.70;91.00
61151;DHT22;47029;50.994;2.876;2022-07-15T07:01:53;21.60;91.20
61151;DHT22;47029;50.994;2.876;2022-07-15T07:04:19;21.70;91.50
61151;DHT22;47029;50.994;2.876;2022-07-15T07:06:45;21.80;91.10
61151;DHT22;47029;50.994;2.876;2022-07-15T07:09:12;21.70;91.00
61151;DHT22;47029;50.994;2.876;2022-07-15T07:11:38;21.90;91.40
61151;DHT22;47029;50.994;2.876;2022-07-15T07:14:05;22.10;91.20
61151;DHT22;47029;50.994;2.876;2022-07-15T07:16:31;22.20;90.70
61151;DHT22;47029;50.994;2.876;2022-07-15T07:18:57;22.00;89.50
61151;DHT22;47029;50.994;2.876;2022-07-15T07:21:23;22.00;91.80
61151;DHT22;47029;50.994;2.876;2022-07-15T07:23:49;22.00;88.00
61151;DHT22;47029;50.994;2.876;2022-07-15T07:26:16;22.30;89.40
61151;DHT22;47029;50.994;2.876;2022-07-15T07:28:42;22.40;88.90
61151;DHT22;47029;50.994;2.876;2022-07-15T07:31:10;22.50;85.40
61151;DHT22;47029;50.994;2.876;2022-07-15T07:33:36;22.40;84.60
61151;DHT22;47029;50.994;2.876;2022-07-15T07:36:04;22.30;85.30
61151;DHT22;47029;50.994;2.876;2022-07-15T07:38:34;22.40;85.60
61151;DHT22;47029;50.994;2.876;2022-07-15T07:41:00;22.70;84.30
61151;DHT22;47029;50.994;2.876;2022-07-15T07:43:27;22.90;83.40
61151;DHT22;47029;50.994;2.876;2022-07-15T07:45:54;23.00;84.20
61151;DHT22;47029;50.994;2.876;2022-07-15T07:48:20;23.20;81.70
61151;DHT22;47029;50.994;2.876;2022-07-15T07:50:47;23.20;81.50
61151;DHT22;47029;50.994;2.876;2022-07-15T07:53:13;23.20;82.60
61151;DHT22;47029;50.994;2.876;2022-07-15T07:55:39;23.30;82.30
61151;DHT22;47029;50.994;2.876;2022-07-15T07:58:05;23.40;80.40
61151;DHT22;47029;50.994;2.876;2022-07-15T08:00:33;23.60;81.10
61151;DHT22;47029;50.994;2.876;2022-07-15T08:03:00;23.60;80.50
61151;DHT22;47029;50.994;2.876;2022-07-15T08:05:27;24.00;78.10
61151;DHT22;47029;50.994;2.876;2022-07-15T08:08:28;24.00;79.00
61151;DHT22;47029;50.994;2.876;2022-07-15T08:10:55;23.80;76.30
61151;DHT22;47029;50.994;2.876;2022-07-15T08:13:24;24.00;76.00
61151;DHT22;47029;50.994;2.876;2022-07-15T08:15:52;24.10;76.30
61151;DHT22;47029;50.994;2.876;2022-07-15T08:18:19;24.00;79.10
61151;DHT22;47029;50.994;2.876;2022-07-15T08:20:45;23.40;76.40
61151;DHT22;47029;50.994;2.876;2022-07-15T08:23:12;23.00;78.90
61151;DHT22;47029;50.994;2.876;2022-07-15T08:25:38;22.80;79.80
61151;DHT22;47029;50.994;2.876;2022-07-15T08:28:05;23.10;80.10
61151;DHT22;47029;50.994;2.876;2022-07-15T08:30:32;23.10;80.60
61151;DHT22;47029;50.994;2.876;2022-07-15T08:32:59;23.10;80.00
61151;DHT22;47029;50.994;2.876;2022-07-15T08:35:25;22.50;82.80
61151;DHT22;47029;50.994;2.876;2022-07-15T08:37:52;22.80;83.90
61151;DHT22;47029;50.994;2.876;2022-07-15T08:40:18;23.20;80.90
61151;DHT22;47029;50.994;2.876;2022-07-15T08:42:44;23.70;78.60
61151;DHT22;47029;50.994;2.876;2022-07-15T08:45:12;23.20;80.10
61151;DHT22;47029;50.994;2.876;2022-07-15T08:47:41;22.80;80.20
61151;DHT22;47029;50.994;2.876;2022-07-15T08:50:10;22.60;79.90
61151;DHT22;47029;50.994;2.876;2022-07-15T08:52:37;22.30;80.80
61151;DHT22;47029;50.994;2.876;2022-07-15T08:55:05;22.20;84.20
61151;DHT22;47029;50.994;2.876;2022-07-15T08:57:31;22.40;83.00
61151;DHT22;47029;50.994;2.876;2022-07-15T08:59:57;23.20;82.70
61151;DHT22;47029;50.994;2.876;2022-07-15T09:02:23;23.30;79.70
61151;DHT22;47029;50.994;2.876;2022-07-15T09:07:56;23.30;77.70
61151;DHT22;47029;50.994;2.876;2022-07-15T09:10:24;23.30;77.20
61151;DHT22;47029;50.994;2.876;2022-07-15T09:12:51;22.90;78.10
61151;DHT22;47029;50.994;2.876;2022-07-15T09:15:40;22.40;78.80
61151;DHT22;47029;50.994;2.876;2022-07-15T09:18:09;22.10;80.20
61151;DHT22;47029;50.994;2.876;2022-07-15T09:20:36;22.50;81.20
61151;DHT22;47029;50.994;2.876;2022-07-15T09:23:02;23.00;80.80
61151;DHT22;47029;50.994;2.876;2022-07-15T09:25:30;23.10;79.80
61151;DHT22;47029;50.994;2.876;2022-07-15T09:27:59;22.90;80.50
61151;DHT22;47029;50.994;2.876;2022-07-15T09:30:30;22.60;81.70
61151;DHT22;47029;50.994;2.876;2022-07-15T09:33:18;22.40;82.70
61151;DHT22;47029;50.994;2.876;2022-07-15T09:36:13;21.90;84.10
61151;DHT22;47029;50.994;2.876;2022-07-15T09:38:48;22.20;84.00
61151;DHT22;47029;50.994;2.876;2022-07-15T09:41:31;22.80;82.00
61151;DHT22;47029;50.994;2.876;2022-07-15T09:46:55;23.60;79.10
61151;DHT22;47029;50.994;2.876;2022-07-15T09:51:58;23.90;78.50
61151;DHT22;47029;50.994;2.876;2022-07-15T09:54:25;23.60;79.10
61151;DHT22;47029;50.994;2.876;2022-07-15T09:56:52;24.00;77.40
61151;DHT22;47029;50.994;2.876;2022-07-15T09:59:19;23.90;78.50
61151;DHT22;47029;50.994;2.876;2022-07-15T10:01:45;23.70;77.20
61151;DHT22;47029;50.994;2.876;2022-07-15T10:04:18;24.10;77.00
61151;DHT22;47029;50.994;2.876;2022-07-15T10:06:47;24.50;76.70
61151;DHT22;47029;50.994;2.876;2022-07-15T10:09:14;24.40;77.30
61151;DHT22;47029;50.994;2.876;2022-07-15T10:11:49;23.60;77.60
61151;DHT22;47029;50.994;2.876;2022-07-15T10:29:01;23.70;77.30
61151;DHT22;47029;50.994;2.876;2022-07-15T10:31:30;24.10;76.80
61151;DHT22;47029;50.994;2.876;2022-07-15T10:39:17;23.80;78.20
61151;DHT22;47029;50.994;2.876;2022-07-15T10:41:59;23.20;78.80
61151;DHT22;47029;50.994;2.876;2022-07-15T10:44:26;23.20;79.00
61151;DHT22;47029;50.994;2.876;2022-07-15T10:49:38;24.30;77.90
61151;DHT22;47029;50.994;2.876;2022-07-15T10:52:18;24.20;77.30
61151;DHT22;47029;50.994;2.876;2022-07-15T10:54:47;24.00;76.90
61151;DHT22;47029;50.994;2.876;2022-07-15T10:57:13;23.60;78.20
61151;DHT22;47029;50.994;2.876;2022-07-15T11:06:03;23.40;79.40
61151;DHT22;47029;50.994;2.876;2022-07-15T11:13:41;23.40;78.70
61151;DHT22;47029;50.994;2.876;2022-07-15T11:16:11;23.80;79.30
61151;DHT22;47029;50.994;2.876;2022-07-15T11:18:49;24.00;77.80
61151;DHT22;47029;50.994;2.876;2022-07-15T11:21:16;24.30;77.60
61151;DHT22;47029;50.994;2.876;2022-07-15T11:23:50;24.20;77.50
61151;DHT22;47029;50.994;2.876;2022-07-15T11:26:17;24.60;76.10
61151;DHT22;47029;50.994;2.876;2022-07-15T11:28:55;24.30;76.40
61151;DHT22;47029;50.994;2.876;2022-07-15T11:31:22;23.80;77.80
61151;DHT22;47029;50.994;2.876;2022-07-15T11:33:55;23.50;78.30
61151;DHT22;47029;50.994;2.876;2022-07-15T11:36:21;23.50;78.40
61151;DHT22;47029;50.994;2.876;2022-07-15T11:38:48;24.00;80.00
61151;DHT22;47029;50.994;2.876;2022-07-15T11:41:14;24.50;77.90
61151;DHT22;47029;50.994;2.876;2022-07-15T11:44:03;24.90;76.00
61151;DHT22;47029;50.994;2.876;2022-07-15T11:46:50;24.70;75.50
61151;DHT22;47029;50.994;2.876;2022-07-15T11:49:36;24.30;76.20
61151;DHT22;47029;50.994;2.876;2022-07-15T11:52:09;23.80;77.90
61151;DHT22;47029;50.994;2.876;2022-07-15T11:54:39;23.90;77.10
61151;DHT22;47029;50.994;2.876;2022-07-15T11:57:08;23.80;77.90
61151;DHT22;47029;50.994;2.876;2022-07-15T11:59:35;24.00;76.40
61151;DHT22;47029;50.994;2.876;2022-07-15T12:02:05;24.20;76.20
61151;DHT22;47029;50.994;2.876;2022-07-15T12:04:32;24.20;75.40
61151;DHT22;47029;50.994;2.876;2022-07-15T12:06:58;24.40;74.70
61151;DHT22;47029;50.994;2.876;2022-07-15T12:09:25;24.70;74.70
61151;DHT22;47029;50.994;2.876;2022-07-15T12:11:51;24.90;74.40
61151;DHT22;47029;50.994;2.876;2022-07-15T12:14:22;24.40;76.30
61151;DHT22;47029;50.994;2.876;2022-07-15T12:16:51;24.40;76.00
61151;DHT22;47029;50.994;2.876;2022-07-15T12:19:25;24.50;75.30
61151;DHT22;47029;50.994;2.876;2022-07-15T12:21:59;24.60;75.40
61151;DHT22;47029;50.994;2.876;2022-07-15T12:24:42;24.80;76.30
61151;DHT22;47029;50.994;2.876;2022-07-15T12:27:10;24.60;74.90
61151;DHT22;47029;50.994;2.876;2022-07-15T12:29:36;23.90;77.70
61151;DHT22;47029;50.994;2.876;2022-07-15T12:32:11;24.20;77.30
61151;DHT22;47029;50.994;2.876;2022-07-15T12:34:48;24.10;76.80
61151;DHT22;47029;50.994;2.876;2022-07-15T12:42:29;25.20;76.60
61151;DHT22;47029;50.994;2.876;2022-07-15T12:45:13;25.30;77.00
61151;DHT22;47029;50.994;2.876;2022-07-15T12:48:05;25.50;76.80
61151;DHT22;47029;50.994;2.876;2022-07-15T12:53:18;24.90;75.50
61151;DHT22;47029;50.994;2.876;2022-07-15T12:55:47;24.30;77.20
61151;DHT22;47029;50.994;2.876;2022-07-15T12:58:15;24.10;78.30
61151;DHT22;47029;50.994;2.876;2022-07-15T13:00:43;24.20;78.90
61151;DHT22;47029;50.994;2.876;2022-07-15T13:05:50;24.90;75.80
61151;DHT22;47029;50.994;2.876;2022-07-15T13:08:26;24.60;76.10
61151;DHT22;47029;50.994;2.876;2022-07-15T13:10:55;24.70;76.00
61151;DHT22;47029;50.994;2.876;2022-07-15T13:13:23;24.70;75.90
61151;DHT22;47029;50.994;2.876;2022-07-15T13:15:51;24.40;76.60
61151;DHT22;47029;50.994;2.876;2022-07-15T13:18:17;24.10;78.50
61151;DHT22;47029;50.994;2.876;2022-07-15T13:20:44;24.40;77.10
61151;DHT22;47029;50.994;2.876;2022-07-15T13:23:10;24.50;76.20
61151;DHT22;47029;50.994;2.876;2022-07-15T13:25:37;24.30;76.50
61151;DHT22;47029;50.994;2.876;2022-07-15T13:28:05;24.00;78.00
61151;DHT22;47029;50.994;2.876;2022-07-15T13:30:32;24.40;77.40
61151;DHT22;47029;50.994;2.876;2022-07-15T13:32:58;24.60;76.20
61151;DHT22;47029;50.994;2.876;2022-07-15T13:35:24;24.70;76.00
61151;DHT22;47029;50.994;2.876;2022-07-15T13:37:50;24.80;75.40
61151;DHT22;47029;50.994;2.876;2022-07-15T13:40:16;25.00;75.00
61151;DHT22;47029;50.994;2.876;2022-07-15T13:42:42;25.20;74.20
61151;DHT22;47029;50.994;2.876;2022-07-15T13:45:10;25.00;74.80
61151;DHT22;47029;50.994;2.876;2022-07-15T13:47:36;24.50;76.10
61151;DHT22;47029;50.994;2.876;2022-07-15T13:50:03;24.60;75.00
61151;DHT22;47029;50.994;2.876;2022-07-15T13:52:49;24.60;74.20
61151;DHT22;47029;50.994;2.876;2022-07-15T13:55:17;24.50;74.50
61151;DHT22;47029;50.994;2.876;2022-07-15T13:57:44;24.40;74.80
61151;DHT22;47029;50.994;2.876;2022-07-15T14:00:13;24.50;76.00
61151;DHT22;47029;50.994;2.876;2022-07-15T14:02:42;24.50;74.40
61151;DHT22;47029;50.994;2.876;2022-07-15T14:05:08;24.70;74.00
61151;DHT22;47029;50.994;2.876;2022-07-15T14:07:35;24.70;74.00
61151;DHT22;47029;50.994;2.876;2022-07-15T14:10:02;24.90;74.30
61151;DHT22;47029;50.994;2.876;2022-07-15T14:12:28;24.50;73.60
61151;DHT22;47029;50.994;2.876;2022-07-15T14:14:54;25.00;72.90
61151;DHT22;47029;50.994;2.876;2022-07-15T14:17:20;24.80;73.60
61151;DHT22;47029;50.994;2.876;2022-07-15T14:19:46;24.90;73.30
61151;DHT22;47029;50.994;2.876;2022-07-15T14:22:12;24.60;74.40
61151;DHT22;47029;50.994;2.876;2022-07-15T14:24:38;24.40;73.50
61151;DHT22;47029;50.994;2.876;2022-07-15T14:27:04;24.50;74.10
61151;DHT22;47029;50.994;2.876;2022-07-15T14:29:29;24.70;73.20
61151;DHT22;47029;50.994;2.876;2022-07-15T14:31:55;24.70;73.40
61151;DHT22;47029;50.994;2.876;2022-07-15T14:34:21;24.70;72.90
61151;DHT22;47029;50.994;2.876;2022-07-15T14:36:47;24.70;72.80
61151;DHT22;47029;50.994;2.876;2022-07-15T14:39:13;24.60;73.10
61151;DHT22;47029;50.994;2.876;2022-07-15T14:41:40;24.60;73.00
61151;DHT22;47029;50.994;2.876;2022-07-15T14:44:05;24.70;73.80
61151;DHT22;47029;50.994;2.876;2022-07-15T14:46:31;24.90;72.40
61151;DHT22;47029;50.994;2.876;2022-07-15T14:48:57;25.00;72.20
61151;DHT22;47029;50.994;2.876;2022-07-15T14:51:23;24.80;71.10
61151;DHT22;47029;50.994;2.876;2022-07-15T14:53:49;24.90;71.30
61151;DHT22;47029;50.994;2.876;2022-07-15T14:56:15;24.90;71.90
61151;DHT22;47029;50.994;2.876;2022-07-15T14:58:40;25.00;72.20
61151;DHT22;47029;50.994;2.876;2022-07-15T15:01:06;25.10;71.40
61151;DHT22;47029;50.994;2.876;2022-07-15T15:03:32;24.80;69.30
61151;DHT22;47029;50.994;2.876;2022-07-15T15:05:58;24.30;70.70
61151;DHT22;47029;50.994;2.876;2022-07-15T15:08:25;24.40;71.00
61151;DHT22;47029;50.994;2.876;2022-07-15T15:10:51;24.10;72.20
61151;DHT22;47029;50.994;2.876;2022-07-15T15:13:17;23.70;70.90
61151;DHT22;47029;50.994;2.876;2022-07-15T15:15:43;23.90;71.80
61151;DHT22;47029;50.994;2.876;2022-07-15T15:18:09;24.00;72.20
61151;DHT22;47029;50.994;2.876;2022-07-15T15:20:35;24.20;71.00
61151;DHT22;47029;50.994;2.876;2022-07-15T15:23:01;24.10;71.50
61151;DHT22;47029;50.994;2.876;2022-07-15T15:25:27;23.90;72.10
61151;DHT22;47029;50.994;2.876;2022-07-15T15:28:11;23.80;71.80
61151;DHT22;47029;50.994;2.876;2022-07-15T15:30:37;24.20;71.60
61151;DHT22;47029;50.994;2.876;2022-07-15T15:33:03;24.00;70.50
61151;DHT22;47029;50.994;2.876;2022-07-15T15:35:28;24.10;69.40
61151;DHT22;47029;50.994;2.876;2022-07-15T15:37:54;24.10;70.60
61151;DHT22;47029;50.994;2.876;2022-07-15T15:40:20;24.10;71.10
61151;DHT22;47029;50.994;2.876;2022-07-15T15:42:46;23.80;71.40
61151;DHT22;47029;50.994;2.876;2022-07-15T15:45:12;23.70;71.10
61151;DHT22;47029;50.994;2.876;2022-07-15T15:47:38;23.90;68.80
61151;DHT22;47029;50.994;2.876;2022-07-15T15:50:04;23.90;69.90
61151;DHT22;47029;50.994;2.876;2022-07-15T15:52:30;24.10;70.30
61151;DHT22;47029;50.994;2.876;2022-07-15T15:54:55;24.10;69.80
61151;DHT22;47029;50.994;2.876;2022-07-15T15:57:22;24.10;70.40
61151;DHT22;47029;50.994;2.876;2022-07-15T15:59:48;24.20;68.90
61151;DHT22;47029;50.994;2.876;2022-07-15T16:02:14;24.20;68.50
61151;DHT22;47029;50.994;2.876;2022-07-15T16:04:41;24.10;69.30
61151;DHT22;47029;50.994;2.876;2022-07-15T16:07:06;23.80;68.80
61151;DHT22;47029;50.994;2.876;2022-07-15T16:09:33;24.00;69.00
61151;DHT22;47029;50.994;2.876;2022-07-15T16:11:58;23.90;70.30
61151;DHT22;47029;50.994;2.876;2022-07-15T16:14:24;23.80;71.60
61151;DHT22;47029;50.994;2.876;2022-07-15T16:16:50;23.80;70.90
61151;DHT22;47029;50.994;2.876;2022-07-15T16:19:16;23.70;69.90
61151;DHT22;47029;50.994;2.876;2022-07-15T16:21:42;23.90;70.30
61151;DHT22;47029;50.994;2.876;2022-07-15T16:24:26;23.80;69.70
61151;DHT22;47029;50.994;2.876;2022-07-15T16:26:52;23.70;70.50